TimeEST,TemperatureF,Dew PointF,Humidity,Sea Level PressureIn,VisibilityMPH,Wind Direction,Wind SpeedMPH,Gust SpeedMPH,PrecipitationIn,Events,Conditions,WindDirDegrees,DateUTC
12:56 AM,36.0,28.9,76,30.27,10.0,ESE,5.8,-,N/A,,Overcast,120,2013-02-23 05:56:00
1:10 AM,37.4,28.4,70,30.27,10.0,ESE,6.9,-,N/A,,Overcast,120,2013-02-23 06:10:00
1:47 AM,37.4,28.4,70,30.26,10.0,ESE,6.9,-,N/A,,Overcast,120,2013-02-23 06:47:00
1:56 AM,37.0,28.9,73,30.25,10.0,ESE,6.9,-,N/A,,Overcast,110,2013-02-23 06:56:00
2:27 AM,37.4,30.2,75,30.24,10.0,SE,8.1,-,N/A,,Overcast,130,2013-02-23 07:27:00
2:56 AM,37.0,30.0,76,30.22,10.0,SE,8.1,-,N/A,,Overcast,130,2013-02-23 07:56:00
3:56 AM,36.0,30.0,79,30.21,10.0,East,6.9,-,0.00,,Overcast,100,2013-02-23 08:56:00
4:56 AM,36.0,30.9,82,30.19,10.0,East,6.9,-,0.00,,Overcast,100,2013-02-23 09:56:00
5:56 AM,37.0,32.0,82,30.18,10.0,ESE,9.2,-,N/A,,Overcast,110,2013-02-23 10:56:00
6:56 AM,37.9,32.0,79,30.17,10.0,East,11.5,-,N/A,,Overcast,100,2013-02-23 11:56:00
7:56 AM,37.9,34.0,86,30.15,5.0,ESE,11.5,-,N/A,,Overcast,110,2013-02-23 12:56:00
8:56 AM,39.0,35.1,86,30.14,5.0,ESE,11.5,-,N/A,,Overcast,110,2013-02-23 13:56:00
9:56 AM,39.9,36.0,86,30.11,2.0,ESE,11.5,-,0.00,,Light Drizzle,110,2013-02-23 14:56:00
10:56 AM,39.9,37.0,89,30.09,2.0,ESE,12.7,-,0.00,,Light Drizzle,110,2013-02-23 15:56:00
11:21 AM,39.2,37.4,93,30.08,1.0,ESE,11.5,-,0.01,Rain,Light Rain,110,2013-02-23 16:21:00
11:56 AM,41.0,37.9,89,30.06,2.0,ESE,13.8,-,0.03,Rain,Light Rain,110,2013-02-23 16:56:00
12:56 PM,41.0,37.9,89,30.02,2.0,East,18.4,23.0,0.01,,Light Drizzle,100,2013-02-23 17:56:00
1:56 PM,39.9,37.9,93,29.99,2.0,ESE,15.0,-,0.01,Rain,Light Rain,110,2013-02-23 18:56:00
2:56 PM,39.9,37.0,89,29.98,2.0,East,17.3,24.2,0.02,Rain,Light Rain,100,2013-02-23 19:56:00
3:56 PM,39.0,36.0,89,29.96,2.0,East,11.5,21.9,0.03,Rain,Light Rain,80,2013-02-23 20:56:00
4:56 PM,37.9,36.0,93,29.95,2.0,ENE,12.7,18.4,0.11,Rain,Light Rain,60,2013-02-23 21:56:00
5:56 PM,37.0,35.1,93,29.93,2.0,NE,9.2,-,0.07,Rain,Light Rain,50,2013-02-23 22:56:00
6:56 PM,36.0,34.0,93,29.91,1.5,NE,11.5,-,0.03,Rain,Light Rain,50,2013-02-23 23:56:00
7:56 PM,37.0,34.0,89,29.90,2.0,NE,12.7,-,0.00,,Light Drizzle,50,2013-02-24 00:56:00
8:56 PM,36.0,34.0,93,29.85,3.0,NE,13.8,-,0.00,,Light Drizzle,50,2013-02-24 01:56:00
9:56 PM,37.0,34.0,89,29.81,2.0,ENE,10.4,20.7,0.00,,Light Drizzle,60,2013-02-24 02:56:00
11:16 PM,35.6,33.8,93,29.78,2.0,NNE,16.1,-,0.00,,Light Drizzle,30,2013-02-24 04:16:00
11:56 PM,36.0,33.1,89,29.78,5.0,NNE,16.1,-,0.00,,Overcast,30,2013-02-24 04:56:00